createdAt,value
2017-08-17T16:15:40.552Z,5.90
2017-08-17T16:16:40.378Z,5.90
2017-08-17T16:17:40.120Z,6.40
2017-08-17T16:18:40.241Z,6.50
2017-08-17T16:19:41.462Z,6.70
2017-08-17T16:20:40.045Z,6.70
2017-08-17T16:21:39.996Z,6.40
2017-08-17T16:22:39.947Z,6.00
2017-08-17T16:23:39.841Z,6.10
2017-08-17T16:24:39.805Z,6.30
2017-08-17T16:25:39.581Z,6.60
2017-08-17T16:26:39.621Z,5.80
2017-08-17T16:27:39.381Z,6.30
2017-08-17T16:28:39.516Z,6.50
2017-08-17T16:29:39.390Z,5.80
2017-08-17T16:30:39.383Z,6.00
2017-08-17T16:31:39.253Z,5.90
2017-08-17T16:32:39.185Z,6.10
2017-08-17T16:33:38.966Z,6.50
2017-08-17T16:34:39.019Z,5.90
2017-08-17T16:35:39.019Z,6.30
2017-08-17T16:36:38.751Z,5.80
2017-08-17T16:37:38.780Z,5.90
2017-08-17T16:38:38.639Z,6.20
2017-08-17T16:39:38.643Z,5.80
2017-08-17T16:40:38.621Z,5.70
2017-08-17T16:41:38.428Z,5.40
2017-08-17T16:42:38.330Z,6.10
2017-08-17T16:43:38.356Z,5.40
2017-08-17T16:44:38.279Z,5.70
2017-08-17T16:45:38.287Z,5.30
2017-08-17T16:46:38.131Z,6.00
2017-08-17T16:47:38.082Z,5.60
2017-08-17T16:48:38.029Z,5.30
2017-08-17T16:49:37.898Z,5.60
2017-08-17T16:50:37.878Z,5.00
2017-08-17T16:51:37.749Z,6.00
2017-08-17T16:52:37.666Z,5.30
2017-08-17T16:53:37.608Z,6.00
2017-08-17T16:54:37.528Z,5.40
2017-08-17T16:55:37.513Z,5.30
2017-08-17T16:56:37.434Z,5.50
2017-08-17T16:57:37.134Z,5.00
2017-08-17T16:58:37.318Z,5.70
2017-08-17T16:59:37.155Z,5.90
2017-08-17T17:00:37.166Z,6.00
2017-08-17T17:01:36.961Z,5.30
2017-08-17T17:02:36.959Z,5.50
2017-08-17T17:03:36.955Z,5.10
2017-08-17T17:04:36.788Z,5.30
2017-08-17T17:05:44.732Z,5.40
2017-08-17T17:07:42.989Z,5.00
2017-08-17T17:08:42.856Z,5.00
2017-08-17T17:09:55.169Z,5.20
2017-08-17T17:12:22.372Z,5.00
2017-08-17T17:13:17.166Z,5.00
2017-08-17T17:14:17.092Z,5.40
2017-08-17T17:15:17.110Z,4.90
2017-08-17T17:16:16.928Z,5.10
2017-08-17T17:17:19.693Z,3.70
2017-08-17T17:18:37.271Z,4.80
2017-08-17T17:19:37.092Z,5.10
2017-08-17T17:20:51.837Z,4.90
2017-08-17T17:21:51.832Z,4.50
2017-08-17T17:23:04.427Z,4.50
2017-08-17T17:24:04.319Z,4.40
2017-08-17T17:25:04.193Z,4.50
2017-08-17T17:26:04.126Z,4.20
2017-08-17T17:27:04.048Z,4.40
